Date,TemperatureHighF,TemperatureAvgF,TemperatureLowF,DewpointHighF,DewpointAvgF,DewpointLowF,HumidityHigh,HumidityAvg,HumidityLow,PressureMaxIn,PressureMinIn,WindSpeedMaxMPH,WindSpeedAvgMPH,GustSpeedMaxMPH,PrecipitationSumIn
2013-2-1,63.3,50.1,39.4,54.3,47.0,38.9,98,90,71,30.13,30.04,3,0,0,0.00
2013-2-2,62.2,49.2,40.3,55.1,47.0,39.8,98,93,77,30.21,30.11,3,0,0,0.00
2013-2-3,61.5,48.8,39.6,52.0,46.3,39.1,98,92,71,30.17,30.04,3,0,0,0.00
2013-2-4,66.2,47.2,34.3,55.7,44.7,33.8,98,92,69,30.10,29.96,3,0,0,0.00
2013-2-5,54.9,48.9,44.2,49.9,47.1,43.7,98,94,82,30.06,29.98,5,1,0,0.00
2013-2-6,61.2,46.4,36.5,49.4,43.2,36.0,98,90,60,30.11,30.01,3,0,0,0.00
2013-2-7,54.9,42.8,33.4,48.6,39.9,32.9,98,90,63,30.12,29.90,5,1,0,0.04
2013-2-8,53.2,41.3,34.0,45.2,39.6,33.5,98,94,74,29.93,29.85,3,0,0,0.01
2013-2-9,57.6,43.2,30.9,36.9,34.1,29.1,98,72,43,30.02,29.90,5,0,0,0.00
2013-2-10,59.5,46.6,30.9,43.3,38.3,28.9,96,74,53,30.05,29.92,3,0,0,0.00
2013-2-11,56.5,38.2,34.0,37.6,33.8,32.2,97,86,49,30.16,30.00,1,0,0,0.00
2013-2-12,61.9,50.9,31.6,45.5,41.1,30.1,94,71,51,30.28,30.18,3,1,0,0.00
2013-2-13,63.7,37.4,32.0,49.0,35.3,31.5,98,93,54,30.27,30.15,1,0,0,0.00
2013-2-14,67.6,57.4,37.4,50.4,46.6,36.9,98,69,52,30.18,30.08,3,1,0,0.00
2013-2-15,65.5,46.4,37.2,54.2,43.1,36.7,98,89,65,30.19,30.14,2,0,0,0.00
2013-2-16,67.5,52.6,37.8,55.1,46.7,37.3,98,82,58,30.17,29.97,3,1,0,0.00
2013-2-17,68.7,50.5,40.3,49.6,44.4,39.8,98,83,44,29.98,29.87,3,0,0,0.00
2013-2-18,51.3,44.4,35.4,46.8,42.0,34.9,98,91,80,29.95,29.87,7,1,0,0.00
2013-2-19,45.5,41.4,36.3,43.4,40.3,35.8,98,96,85,29.88,29.65,3,1,0,0.48
2013-2-20,58.1,45.6,30.9,45.0,40.3,30.4,98,84,58,29.98,29.75,2,1,0,0.00
2013-2-21,61.3,48.1,36.7,43.7,39.3,35.1,98,74,43,30.09,29.98,3,0,0,0.00
2013-2-22,59.7,48.7,34.9,47.0,43.5,33.9,98,85,54,30.16,30.09,2,1,0,0.00
2013-2-23,60.4,49.7,45.7,46.8,41.9,30.4,98,77,46,30.15,30.07,4,2,0,0.00
2013-2-24,57.9,43.1,36.0,35.0,30.8,27.9,79,62,41,30.18,30.08,2,0,0,0.00
2013-2-25,66.2,48.4,33.1,50.2,40.7,29.7,94,76,53,30.20,30.07,2,0,0,0.00
2013-2-26,68.4,51.8,33.6,41.1,33.7,29.4,98,55,25,30.14,30.03,4,1,0,0.00
2013-2-27,69.8,64.1,53.8,47.3,42.5,40.2,70,46,36,30.23,30.18,3,1,0,0.00
2013-2-28,53.2,49.4,46.4,48.5,47.5,45.9,98,93,84,30.36,30.35,0,0,0,0.00